createdAt,value
2019-02-24T00:01:32.350Z,24.00
2019-02-24T00:04:20.554Z,24.00
2019-02-24T00:07:08.877Z,24.00
2019-02-24T00:09:57.083Z,24.00
2019-02-24T00:12:45.510Z,24.00
2019-02-24T00:15:33.968Z,24.00
2019-02-24T00:18:22.455Z,24.00
2019-02-24T00:21:10.710Z,24.00
2019-02-24T00:23:59.082Z,24.00
2019-02-24T00:26:47.509Z,24.00
2019-02-24T00:29:35.990Z,24.00
2019-02-24T00:32:24.211Z,23.90
2019-02-24T00:35:12.688Z,23.90
2019-02-24T00:38:01.159Z,23.90
2019-02-24T00:40:49.470Z,23.90
2019-02-24T00:43:37.815Z,23.90
2019-02-24T00:46:25.930Z,23.90
2019-02-24T00:49:14.323Z,23.90
2019-02-24T00:52:02.698Z,23.90
2019-02-24T00:54:50.721Z,23.90
2019-02-24T00:57:39.030Z,23.90
2019-02-24T01:00:27.486Z,23.80
2019-02-24T01:03:15.685Z,23.80
2019-02-24T01:06:04.072Z,23.90
2019-02-24T01:08:52.450Z,23.80
2019-02-24T01:11:41.043Z,23.80
2019-02-24T01:14:29.410Z,23.80
2019-02-24T01:17:17.732Z,23.80
2019-02-24T01:20:09.089Z,23.80
2019-02-24T01:22:57.319Z,23.80
2019-02-24T01:25:46.034Z,23.80
2019-02-24T01:28:34.765Z,23.80
2019-02-24T01:31:23.175Z,23.80
2019-02-24T01:34:11.745Z,23.80
2019-02-24T01:36:59.760Z,23.80
2019-02-24T01:39:48.102Z,23.80
2019-02-24T01:42:36.498Z,23.80
2019-02-24T01:45:24.839Z,23.80
2019-02-24T01:48:13.118Z,23.80
2019-02-24T01:51:01.450Z,23.80
2019-02-24T01:53:49.349Z,23.70
2019-02-24T01:56:37.669Z,23.80
2019-02-24T01:59:25.955Z,23.80
2019-02-24T02:02:14.457Z,23.80
2019-02-24T02:05:02.747Z,23.80
2019-02-24T02:07:51.628Z,23.70
2019-02-24T02:10:40.059Z,23.70
2019-02-24T02:13:28.435Z,23.80
2019-02-24T02:16:16.695Z,23.80
2019-02-24T02:19:04.909Z,23.80
2019-02-24T02:21:53.431Z,23.80
2019-02-24T02:24:41.738Z,23.70
2019-02-24T02:27:30.122Z,23.70
2019-02-24T02:30:18.211Z,23.70
2019-02-24T02:33:06.738Z,23.70
2019-02-24T02:35:55.146Z,23.70
2019-02-24T02:38:43.190Z,23.70
2019-02-24T02:41:31.539Z,23.70
2019-02-24T02:44:19.864Z,23.70
2019-02-24T02:47:08.306Z,23.70
2019-02-24T02:49:56.587Z,23.70
2019-02-24T02:52:44.823Z,23.70
2019-02-24T02:55:33.146Z,23.70
2019-02-24T02:58:21.527Z,23.70
2019-02-24T03:01:10.015Z,23.70
2019-02-24T03:03:58.242Z,23.70
2019-02-24T03:06:48.248Z,23.70
2019-02-24T03:09:36.455Z,23.70
2019-02-24T03:12:24.866Z,23.70
2019-02-24T03:15:13.203Z,23.60
2019-02-24T03:18:01.402Z,23.60
2019-02-24T03:20:49.621Z,23.60
2019-02-24T03:23:38.082Z,23.70
2019-02-24T03:26:26.328Z,23.60
2019-02-24T03:29:15.675Z,23.60
2019-02-24T03:32:03.939Z,23.70
2019-02-24T03:34:52.241Z,23.60
2019-02-24T03:37:41.053Z,23.60
2019-02-24T03:40:29.206Z,23.60
2019-02-24T03:43:17.616Z,23.70
2019-02-24T03:46:06.178Z,23.60
2019-02-24T03:48:54.807Z,23.60
2019-02-24T03:51:42.871Z,23.60
2019-02-24T03:54:31.139Z,23.60
2019-02-24T03:57:19.136Z,23.60
2019-02-24T04:00:07.344Z,23.60
2019-02-24T04:02:56.251Z,23.60
2019-02-24T04:05:44.533Z,23.60
2019-02-24T04:08:32.436Z,23.60
2019-02-24T04:11:20.758Z,23.60
2019-02-24T04:14:09.568Z,23.60
2019-02-24T04:16:57.787Z,23.60
2019-02-24T04:19:46.331Z,23.60
2019-02-24T04:22:34.349Z,23.60
2019-02-24T04:25:22.875Z,23.60
2019-02-24T04:28:12.202Z,23.60
2019-02-24T04:31:00.556Z,23.60
2019-02-24T04:33:48.973Z,23.60
2019-02-24T04:36:37.163Z,23.60
2019-02-24T04:39:25.457Z,23.60
2019-02-24T04:42:14.131Z,23.60
2019-02-24T04:45:02.223Z,23.60
2019-02-24T04:47:50.438Z,23.60
2019-02-24T04:50:39.085Z,23.60
2019-02-24T04:53:27.950Z,23.50
2019-02-24T04:56:16.368Z,23.50
2019-02-24T04:59:04.741Z,23.50
2019-02-24T05:01:53.087Z,23.50
2019-02-24T05:04:41.474Z,23.60
2019-02-24T05:07:29.658Z,23.50
2019-02-24T05:10:17.884Z,23.50
2019-02-24T05:13:06.322Z,23.50
2019-02-24T05:15:54.878Z,23.50
2019-02-24T05:18:43.361Z,23.50
2019-02-24T05:21:31.592Z,23.50
2019-02-24T05:24:19.799Z,23.50
2019-02-24T05:27:08.101Z,23.50
2019-02-24T05:29:56.547Z,23.50
2019-02-24T05:32:44.834Z,23.50
2019-02-24T05:35:33.003Z,23.50
2019-02-24T05:38:21.342Z,23.50
2019-02-24T05:41:09.957Z,23.50
2019-02-24T05:43:58.459Z,23.50
2019-02-24T05:46:46.601Z,23.50
2019-02-24T05:49:34.567Z,23.50
2019-02-24T05:52:23.115Z,23.50
2019-02-24T05:55:11.853Z,23.50
2019-02-24T05:58:00.296Z,23.50
2019-02-24T06:00:48.870Z,23.50
2019-02-24T06:03:37.182Z,23.50
2019-02-24T06:06:25.581Z,23.50
2019-02-24T06:09:14.298Z,23.50
2019-02-24T06:12:02.540Z,23.50
2019-02-24T06:14:51.033Z,23.50
2019-02-24T06:17:39.203Z,23.50
2019-02-24T06:20:27.922Z,23.50
2019-02-24T06:23:16.666Z,23.50
2019-02-24T06:26:05.055Z,23.50
2019-02-24T06:28:53.301Z,23.50
2019-02-24T06:31:41.746Z,23.50
2019-02-24T06:34:30.286Z,23.50
2019-02-24T06:37:18.586Z,23.50
2019-02-24T06:40:07.749Z,23.50
2019-02-24T06:42:57.001Z,23.50
2019-02-24T06:45:45.290Z,23.50
2019-02-24T06:48:33.735Z,23.50
2019-02-24T06:51:22.041Z,23.50
2019-02-24T06:54:10.362Z,23.50
2019-02-24T06:56:58.994Z,23.50
2019-02-24T06:59:47.334Z,23.50
2019-02-24T07:02:35.794Z,23.50
2019-02-24T07:05:24.268Z,23.50
2019-02-24T07:08:12.884Z,23.50
2019-02-24T07:11:01.470Z,23.50
2019-02-24T07:13:50.008Z,23.50
2019-02-24T07:16:38.267Z,23.50
2019-02-24T07:19:26.627Z,23.50
2019-02-24T07:22:14.861Z,23.50
2019-02-24T07:25:03.317Z,23.50
2019-02-24T07:27:52.022Z,23.50
2019-02-24T07:30:40.258Z,23.50
2019-02-24T07:33:28.527Z,23.50
2019-02-24T07:36:17.070Z,23.40
2019-02-24T07:39:05.784Z,23.50
2019-02-24T07:41:55.306Z,23.50
2019-02-24T07:44:43.227Z,23.40
2019-02-24T07:47:31.566Z,23.50
2019-02-24T07:50:19.687Z,23.50
2019-02-24T07:53:08.131Z,23.50
2019-02-24T07:55:56.722Z,23.50
2019-02-24T07:58:45.190Z,23.50
2019-02-24T08:01:33.318Z,23.50
2019-02-24T08:04:21.933Z,23.50
2019-02-24T08:07:10.255Z,23.50
2019-02-24T08:09:58.319Z,23.50
2019-02-24T08:12:46.523Z,23.50
2019-02-24T08:15:35.870Z,23.50
2019-02-24T08:18:24.294Z,23.50
2019-02-24T08:21:12.463Z,23.50
2019-02-24T08:24:00.843Z,23.50
2019-02-24T08:26:49.522Z,23.50
2019-02-24T08:29:37.490Z,23.50
2019-02-24T08:32:25.814Z,23.50
2019-02-24T08:35:14.130Z,23.50
2019-02-24T08:38:02.570Z,23.50
2019-02-24T08:40:50.879Z,23.50
2019-02-24T08:43:39.263Z,23.50
2019-02-24T08:46:27.522Z,23.50
2019-02-24T08:49:15.774Z,23.50
2019-02-24T08:52:04.104Z,23.50
2019-02-24T08:54:53.410Z,23.80
2019-02-24T08:57:42.103Z,24.20
2019-02-24T09:00:30.743Z,24.60
2019-02-24T09:03:19.390Z,25.00
2019-02-24T09:06:07.707Z,25.50
2019-02-24T09:08:57.427Z,25.80
2019-02-24T09:11:45.872Z,26.10
2019-02-24T09:14:34.039Z,26.40
2019-02-24T09:17:22.583Z,26.50
2019-02-24T09:20:11.797Z,26.50
2019-02-24T09:23:00.308Z,26.30
2019-02-24T09:25:48.914Z,26.10
2019-02-24T09:28:37.303Z,25.90
2019-02-24T09:31:25.638Z,25.70
2019-02-24T09:34:13.914Z,25.60
2019-02-24T09:37:02.630Z,25.40
2019-02-24T09:39:51.134Z,25.30
2019-02-24T09:42:39.349Z,25.00
2019-02-24T09:45:28.066Z,24.60
2019-02-24T09:48:16.460Z,24.10
2019-02-24T09:51:04.763Z,23.80
2019-02-24T09:53:53.296Z,23.70
2019-02-24T09:56:41.746Z,23.60
2019-02-24T09:59:29.687Z,23.60
2019-02-24T10:02:18.798Z,23.60
2019-02-24T10:05:07.398Z,23.60
2019-02-24T10:07:55.623Z,23.70
2019-02-24T10:10:43.867Z,23.70
2019-02-24T10:13:32.146Z,23.70
2019-02-24T10:16:20.695Z,23.80
2019-02-24T10:19:08.870Z,23.70
2019-02-24T10:21:56.913Z,23.80
2019-02-24T10:24:44.979Z,23.80
2019-02-24T10:27:33.674Z,23.80
2019-02-24T10:30:21.889Z,23.80
2019-02-24T10:33:10.479Z,23.80
2019-02-24T10:35:59.952Z,23.80
2019-02-24T10:38:48.534Z,23.80
2019-02-24T10:41:36.964Z,23.80
2019-02-24T10:44:25.182Z,23.80
2019-02-24T10:47:13.599Z,23.80
2019-02-24T10:50:01.986Z,23.80
2019-02-24T10:52:51.237Z,23.80
2019-02-24T10:55:39.806Z,23.80
2019-02-24T10:58:34.541Z,23.80
2019-02-24T11:01:18.091Z,23.80
2019-02-24T11:04:06.455Z,23.80
2019-02-24T11:06:54.854Z,23.70
2019-02-24T11:09:25.597Z,23.70
2019-02-24T11:11:55.684Z,23.70
2019-02-24T11:14:26.145Z,23.60
2019-02-24T11:16:56.611Z,23.50
2019-02-24T11:19:27.030Z,23.40
2019-02-24T11:21:57.754Z,23.40
2019-02-24T11:24:28.390Z,23.40
2019-02-24T11:26:58.836Z,23.40
2019-02-24T11:29:29.282Z,23.30
2019-02-24T11:31:59.855Z,23.30
2019-02-24T11:34:30.406Z,23.30
2019-02-24T11:37:01.015Z,23.30
2019-02-24T11:39:31.458Z,23.40
2019-02-24T11:42:02.031Z,23.40
2019-02-24T11:44:32.016Z,23.50
2019-02-24T11:47:20.312Z,23.50
2019-02-24T11:49:57.699Z,23.50
2019-02-24T11:52:28.275Z,23.60
2019-02-24T11:54:58.731Z,23.60
2019-02-24T11:57:47.278Z,23.60
2019-02-24T12:00:17.574Z,23.60
2019-02-24T12:02:48.046Z,23.70
2019-02-24T12:05:18.367Z,23.70
2019-02-24T12:07:48.456Z,23.70
2019-02-24T12:10:18.900Z,23.70
2019-02-24T12:13:07.413Z,23.70
2019-02-24T12:15:55.665Z,23.80
2019-02-24T12:18:45.191Z,23.80
2019-02-24T12:21:33.476Z,23.80
2019-02-24T12:24:21.778Z,23.80
2019-02-24T12:27:09.990Z,23.80
2019-02-24T12:29:58.635Z,23.80
2019-02-24T12:32:47.146Z,23.80
2019-02-24T12:35:35.731Z,23.80
2019-02-24T12:38:24.291Z,23.80
2019-02-24T12:41:12.935Z,23.80
2019-02-24T12:44:01.175Z,23.80
2019-02-24T12:46:49.853Z,23.80
2019-02-24T12:49:38.283Z,23.80
2019-02-24T12:52:26.648Z,23.80
2019-02-24T12:55:16.752Z,23.80
2019-02-24T12:58:07.334Z,23.80
2019-02-24T13:00:55.419Z,23.80
2019-02-24T13:03:43.675Z,23.70
2019-02-24T13:06:32.063Z,23.50
2019-02-24T13:09:20.407Z,23.30
2019-02-24T13:12:08.830Z,23.10
2019-02-24T13:14:57.373Z,22.90
2019-02-24T13:17:47.433Z,22.70
2019-02-24T13:20:35.431Z,22.60
2019-02-24T13:23:23.934Z,22.50
2019-02-24T13:26:12.410Z,22.40
2019-02-24T13:29:00.663Z,22.30
2019-02-24T13:31:48.678Z,22.30
2019-02-24T13:34:37.000Z,22.30
2019-02-24T13:37:25.214Z,22.30
2019-02-24T13:40:15.174Z,22.40
2019-02-24T13:43:03.235Z,22.50
2019-02-24T13:45:51.831Z,22.60
2019-02-24T13:48:40.098Z,22.60
2019-02-24T13:51:28.425Z,22.50
2019-02-24T13:54:16.703Z,21.80
2019-02-24T13:57:06.370Z,21.40
2019-02-24T13:59:54.973Z,21.20
2019-02-24T14:02:43.039Z,21.10
2019-02-24T14:05:31.780Z,21.20
2019-02-24T14:08:20.202Z,21.40
2019-02-24T14:11:08.460Z,21.70
2019-02-24T14:13:57.135Z,21.90
2019-02-24T14:16:45.454Z,22.10
2019-02-24T14:19:33.918Z,22.20
2019-02-24T14:22:21.890Z,22.40
2019-02-24T14:25:11.702Z,22.50
2019-02-24T14:28:00.203Z,22.60
2019-02-24T14:30:48.666Z,22.70
2019-02-24T14:33:37.266Z,22.80
2019-02-24T14:36:25.604Z,22.90
2019-02-24T14:39:13.933Z,22.90
2019-02-24T14:42:04.055Z,23.00
2019-02-24T14:44:52.142Z,23.00
2019-02-24T14:47:40.552Z,23.10
2019-02-24T14:50:29.080Z,23.10
2019-02-24T14:53:17.395Z,23.20
2019-02-24T14:56:07.695Z,23.20
2019-02-24T14:58:56.286Z,23.20
2019-02-24T15:01:44.933Z,23.20
2019-02-24T15:04:33.417Z,23.20
2019-02-24T15:07:22.759Z,23.20
2019-02-24T15:10:25.791Z,23.20
2019-02-24T15:13:15.227Z,23.30
2019-02-24T15:16:03.914Z,23.30
2019-02-24T15:18:52.239Z,23.30
2019-02-24T15:21:40.658Z,23.30
2019-02-24T15:24:28.794Z,23.30
2019-02-24T15:27:17.116Z,23.30
2019-02-24T15:30:08.593Z,23.30
2019-02-24T15:32:56.626Z,23.30
2019-02-24T15:35:44.915Z,23.30
2019-02-24T15:38:33.210Z,23.30
2019-02-24T15:41:29.547Z,23.30
2019-02-24T15:44:12.007Z,23.30
2019-02-24T15:47:00.591Z,23.30
2019-02-24T15:49:48.767Z,23.30
2019-02-24T15:52:37.146Z,23.30
2019-02-24T15:55:25.470Z,23.30
2019-02-24T15:58:13.771Z,23.30
2019-02-24T16:01:02.606Z,23.30
2019-02-24T16:03:50.750Z,23.30
2019-02-24T16:06:39.043Z,23.30
2019-02-24T16:09:27.494Z,23.30
2019-02-24T16:12:16.012Z,23.20
2019-02-24T16:15:06.149Z,23.20
2019-02-24T16:17:54.658Z,23.20
2019-02-24T16:20:43.319Z,23.20
2019-02-24T16:23:32.753Z,23.20
2019-02-24T16:26:21.042Z,23.20
2019-02-24T16:29:09.158Z,23.30
2019-02-24T16:31:57.271Z,23.50
2019-02-24T16:34:45.399Z,23.60
2019-02-24T16:37:33.666Z,23.70
2019-02-24T16:40:26.539Z,23.80
2019-02-24T16:43:14.974Z,23.90
2019-02-24T16:46:03.285Z,24.00
2019-02-24T16:48:51.742Z,24.00
2019-02-24T16:51:40.571Z,24.00
2019-02-24T16:54:28.846Z,24.10
2019-02-24T16:57:17.175Z,24.20
2019-02-24T17:00:12.235Z,24.30
2019-02-24T17:03:00.550Z,24.40
2019-02-24T17:05:48.527Z,24.50
2019-02-24T17:08:36.862Z,24.70
2019-02-24T17:11:25.230Z,24.70
2019-02-24T17:14:13.546Z,24.70
2019-02-24T17:17:01.971Z,24.70
2019-02-24T17:19:50.613Z,24.60
2019-02-24T17:22:39.005Z,24.40
2019-02-24T17:25:26.994Z,24.30
2019-02-24T17:28:15.310Z,24.20
2019-02-24T17:31:03.515Z,24.00
2019-02-24T17:33:52.344Z,23.90
2019-02-24T17:36:40.648Z,23.90
2019-02-24T17:39:29.239Z,23.90
2019-02-24T17:42:17.539Z,23.90
2019-02-24T17:45:09.050Z,23.90
2019-02-24T17:47:57.544Z,23.80
2019-02-24T17:50:45.959Z,23.90
2019-02-24T17:53:34.318Z,23.80
2019-02-24T17:56:22.723Z,23.90
2019-02-24T17:59:11.062Z,23.80
2019-02-24T18:01:59.607Z,23.90
2019-02-24T18:04:47.882Z,23.80
2019-02-24T18:07:37.111Z,23.90
2019-02-24T18:10:25.110Z,23.90
2019-02-24T18:13:13.722Z,23.90
2019-02-24T18:16:02.133Z,23.90
2019-02-24T18:18:50.318Z,23.90
2019-02-24T18:21:38.463Z,23.80
2019-02-24T18:24:28.103Z,23.80
2019-02-24T18:27:16.600Z,23.80
2019-02-24T18:30:13.478Z,23.80
2019-02-24T18:33:01.820Z,23.80
2019-02-24T18:35:50.307Z,23.80
2019-02-24T18:38:38.624Z,23.80
2019-02-24T18:41:27.134Z,23.80
2019-02-24T18:44:16.801Z,23.80
2019-02-24T18:47:05.568Z,23.80
2019-02-24T18:49:54.135Z,23.80
2019-02-24T18:52:42.550Z,23.80
2019-02-24T18:55:30.834Z,23.80
2019-02-24T18:58:21.080Z,23.80
2019-02-24T19:01:09.474Z,23.80
2019-02-24T19:03:58.264Z,23.80
2019-02-24T19:06:46.584Z,23.80
2019-02-24T19:09:35.178Z,23.80
2019-02-24T19:12:23.962Z,23.80
2019-02-24T19:15:16.518Z,23.80
2019-02-24T19:18:05.023Z,23.80
2019-02-24T19:20:53.545Z,23.80
2019-02-24T19:23:41.614Z,23.80
2019-02-24T19:26:29.638Z,23.80
2019-02-24T19:29:17.649Z,23.70
2019-02-24T19:32:05.891Z,23.70
2019-02-24T19:34:54.135Z,23.70
2019-02-24T19:37:42.443Z,23.70
2019-02-24T19:40:31.154Z,23.70
2019-02-24T19:43:19.382Z,23.70
2019-02-24T19:46:07.590Z,23.70
2019-02-24T19:48:55.980Z,23.70
2019-02-24T19:51:44.095Z,23.70
2019-02-24T19:54:32.310Z,23.70
2019-02-24T19:57:20.709Z,23.80
2019-02-24T20:00:12.509Z,23.70
2019-02-24T20:03:00.962Z,23.80
2019-02-24T20:05:49.191Z,23.80
2019-02-24T20:08:37.311Z,23.80
2019-02-24T20:11:25.879Z,23.80
2019-02-24T20:14:14.123Z,23.80
2019-02-24T20:17:03.298Z,23.80
2019-02-24T20:19:51.614Z,23.80
2019-02-24T20:22:40.090Z,23.80
2019-02-24T20:25:28.648Z,23.80
2019-02-24T20:28:16.835Z,23.80
2019-02-24T20:31:05.099Z,23.80
2019-02-24T20:33:53.627Z,23.80
2019-02-24T20:36:41.904Z,23.80
2019-02-24T20:39:30.164Z,23.80
2019-02-24T20:42:18.560Z,23.80
2019-02-24T20:45:10.366Z,23.80
2019-02-24T20:47:59.282Z,23.80
2019-02-24T20:50:47.484Z,23.80
2019-02-24T20:53:35.300Z,23.80
2019-02-24T20:56:23.495Z,23.80
2019-02-24T20:59:11.435Z,23.80
2019-02-24T21:01:59.535Z,23.80
2019-02-24T21:04:47.495Z,23.80
2019-02-24T21:07:38.131Z,23.80
2019-02-24T21:10:26.334Z,23.80
2019-02-24T21:13:16.696Z,23.80
2019-02-24T21:16:04.322Z,23.80
2019-02-24T21:18:52.650Z,23.80
2019-02-24T21:21:41.491Z,23.80
2019-02-24T21:24:29.902Z,23.80
2019-02-24T21:27:18.892Z,23.80
2019-02-24T21:30:13.591Z,23.80
2019-02-24T21:33:02.038Z,23.80
2019-02-24T21:35:50.502Z,23.80
2019-02-24T21:38:40.067Z,23.80
2019-02-24T21:41:29.871Z,23.80
2019-02-24T21:44:18.137Z,23.80
2019-02-24T21:47:06.645Z,23.80
2019-02-24T21:49:54.950Z,23.80
2019-02-24T21:52:43.202Z,23.80
2019-02-24T21:55:31.511Z,23.80
2019-02-24T21:58:19.731Z,23.80
2019-02-24T22:01:08.016Z,23.80
2019-02-24T22:03:56.405Z,23.80
2019-02-24T22:06:44.851Z,23.80
2019-02-24T22:09:33.421Z,23.80
2019-02-24T22:12:22.106Z,23.80
2019-02-24T22:15:28.976Z,23.80
2019-02-24T22:18:17.259Z,23.80
2019-02-24T22:21:06.261Z,23.80
2019-02-24T22:23:54.819Z,23.80
2019-02-24T22:26:43.694Z,23.80
2019-02-24T22:29:32.173Z,23.80
2019-02-24T22:32:20.375Z,23.80
2019-02-24T22:35:09.627Z,23.80
2019-02-24T22:37:58.026Z,23.80
2019-02-24T22:40:54.181Z,23.80
2019-02-24T22:43:36.291Z,23.80
2019-02-24T22:46:24.635Z,23.80
2019-02-24T22:49:13.505Z,23.90
2019-02-24T22:52:01.817Z,23.80
2019-02-24T22:54:50.138Z,23.80
2019-02-24T22:57:39.399Z,23.80
2019-02-24T23:00:35.138Z,23.80
2019-02-24T23:03:33.402Z,23.80
2019-02-24T23:06:21.513Z,23.80
2019-02-24T23:09:11.171Z,23.80
2019-02-24T23:11:59.879Z,23.80
2019-02-24T23:14:48.093Z,23.80
2019-02-24T23:17:36.881Z,23.80
2019-02-24T23:20:24.908Z,23.80
2019-02-24T23:23:13.422Z,23.80
2019-02-24T23:26:01.925Z,23.90
2019-02-24T23:28:50.331Z,23.80
2019-02-24T23:31:38.786Z,23.90
2019-02-24T23:34:27.047Z,23.80
2019-02-24T23:37:15.415Z,23.80
2019-02-24T23:40:05.954Z,23.80
2019-02-24T23:42:54.146Z,23.80
2019-02-24T23:45:42.272Z,23.80
2019-02-24T23:48:30.810Z,23.80
2019-02-24T23:51:19.110Z,23.80
2019-02-24T23:54:07.334Z,23.80
2019-02-24T23:56:55.763Z,23.80
2019-02-24T23:59:44.015Z,23.80
